Time;durP1;ratioP1;P1;durP2;ratioP2;P2;SDS_P1;SDS_P2;PMS_P1;PMS_P2;Temp;Humidity;BMP_temperature;BMP_pressure;BME280_temperature;BME280_humidity;BME280_pressure;Samples;Min_cycle;Max_cycle;Signal;HPM_P1;HPM_P2
2021/12/13 01:02:43;500618.00;1.67;862.89;0.00;0.00;0.62;;;;;13.40;1.00;;;;;;2274459;61;1039;-90
2021/12/13 01:15:31;426276.00;1.42;734.98;0.00;0.00;0.62;;;;;13.20;1.00;;;;;;2274538;61;1932;-89
2021/12/13 01:33:06;279734.00;0.93;483.08;0.00;0.00;0.62;;;;;13.30;1.00;;;;;;2271005;61;1181;-83
2021/12/13 01:38:07;321160.00;1.07;554.29;0.00;0.00;0.62;;;;;13.20;1.00;;;;;;2271326;61;1427;-83
2021/12/13 01:48:00;666578.00;2.22;1149.33;92338.00;0.31;160.34;;;;;13.30;1.00;;;;;;2271206;61;1396;-85
2021/12/13 01:55:32;331928.00;1.11;572.80;87556.00;0.29;152.09;;;;;13.50;1.00;;;;;;2271108;61;1966;-82
2021/12/13 01:58:18;363736.00;1.21;627.47;99319.00;0.33;172.40;;;;;13.50;1.00;;;;;;2303941;40;4086;31
2021/12/13 02:03:19;437111.00;1.46;753.61;89246.00;0.30;155.01;;;;;12.70;1.00;;;;;;2270741;61;1371;-83
2021/12/13 02:05:48;338104.00;1.13;583.41;94715.00;0.32;164.45;;;;;12.60;1.00;;;;;;2260721;61;970;-82
2021/12/13 02:10:48;365068.00;1.22;629.76;78902.00;0.26;137.14;;;;;12.90;1.00;;;;;;2270889;61;1409;-83
2021/12/13 02:13:22;566871.00;1.89;977.05;181862.00;0.61;314.70;;;;;12.70;1.00;;;;;;2262193;61;990;-85
2021/12/13 02:28:14;151202.00;0.50;261.88;0.00;0.00;0.62;;;;;11.60;1.00;;;;;;2271107;61;1451;-84
2021/12/13 02:30:46;241616.00;0.81;417.53;0.00;0.00;0.62;;;;;11.50;1.00;;;;;;2269188;61;942;-84
2021/12/13 02:33:18;282440.00;0.94;487.73;30733.00;0.10;53.85;;;;;11.30;1.00;;;;;;2262186;61;1001;-84
2021/12/13 02:43:14;115182.00;0.38;199.77;0.00;0.00;0.62;;;;;11.40;1.00;;;;;;2271191;61;1460;-83
2021/12/13 02:45:46;191641.00;0.64;331.53;0.00;0.00;0.62;;;;;11.50;1.00;;;;;;2262340;61;955;-84
2021/12/13 02:50:47;212140.00;0.71;366.82;19985.00;0.07;35.24;;;;;11.80;1.00;;;;;;2270770;61;1280;-85
2021/12/13 02:53:20;124707.00;0.42;216.20;0.00;0.00;0.62;;;;;12.00;1.00;;;;;;2262254;61;970;-82
2021/12/13 03:05:43;182369.00;0.61;315.57;0.00;0.00;0.62;;;;;11.40;1.00;;;;;;2270603;61;1395;-81
2021/12/13 03:10:48;250663.00;0.84;433.09;33095.00;0.11;57.94;;;;;11.20;1.00;;;;;;2270844;61;1419;-84
2021/12/13 03:13:15;126770616.00;422.57;82542464.00;51805.00;0.17;90.31;;;;;11.40;1.00;;;;;;2262098;61;1030;-86
2021/12/13 03:15:48;134832.00;0.45;233.66;0.00;0.00;0.62;;;;;11.50;1.00;;;;;;2261825;61;2001;-84
2021/12/13 03:18:21;182886.00;0.61;316.46;0.00;0.00;0.62;;;;;11.60;1.00;;;;;;2269112;61;1317;-84
2021/12/13 03:26:22;298042.00;0.99;514.55;0.00;0.00;0.62;;;;;12.10;1.00;;;;;;2271114;61;983;-83
2021/12/13 03:31:25;258096.00;0.86;445.87;23482.00;0.08;41.30;;;;;11.70;1.00;;;;;;2270753;61;1300;-84
2021/12/13 03:33:59;466198.00;1.55;803.65;0.00;0.00;0.62;;;;;11.80;1.00;;;;;;2269057;61;962;-83
2021/12/13 04:06:07;319737.00;1.07;551.85;97210.00;0.32;168.76;;;;;12.70;1.00;;;;;;2271071;61;884;-84
2021/12/13 04:23:23;208503.00;0.70;360.56;25836.00;0.09;45.37;;;;;12.00;1.00;;;;;;2270885;61;925;-84
2021/12/13 04:43:09;37330.00;0.12;65.27;0.00;0.00;0.62;;;;;13.20;1.00;;;;;;2508867;40;3616;31
2021/12/13 04:52:59;214188.00;0.71;370.34;0.00;0.00;0.62;;;;;13.20;1.00;;;;;;2270406;61;1371;-84
2021/12/13 04:57:58;196087.00;0.65;339.19;0.00;0.00;0.62;;;;;13.00;1.00;;;;;;2270532;61;1432;-84
2021/12/13 05:00:29;297180.00;0.99;513.07;14361.00;0.05;25.50;;;;;12.70;1.00;;;;;;2260471;61;969;-84
2021/12/13 05:03:02;269125.00;0.90;464.84;1117.00;0.00;2.56;;;;;12.40;1.00;;;;;;2252531;61;965;-85
2021/12/13 05:05:32;179538.00;0.60;310.69;0.00;0.00;0.62;;;;;12.60;1.00;;;;;;2246038;61;935;-84
2021/12/13 05:11:02;152735.00;0.51;264.52;22269.00;0.07;39.20;;;;;12.30;1.00;;;;;;2490728;39;3959;31
2021/12/13 05:38:27;532304.00;1.77;917.46;12518.00;0.04;22.31;;;;;11.90;1.00;;;;;;2519377;39;3624;31
2021/12/13 05:48:20;118447752.00;394.83;67316168.00;117886368.00;392.95;66362712.00;;;;;11.50;1.00;;;;;;2278160;61;1890;-84
2021/12/13 06:10:42;142626.00;0.48;247.10;0.00;0.00;0.62;;;;;12.00;1.00;;;;;;2273972;61;1900;-86
2021/12/13 06:15:43;123496.00;0.41;214.11;0.00;0.00;0.62;;;;;11.50;1.00;;;;;;2274246;61;1138;-83
2021/12/13 06:23:12;88382.00;0.29;153.51;0.00;0.00;0.62;;;;;11.20;1.00;;;;;;2274599;61;1133;-82
2021/12/13 06:28:19;257156.00;0.86;444.26;28221.00;0.09;49.50;;;;;12.10;1.00;;;;;;2274745;60;1411;-84
2021/12/13 06:30:54;499381.00;1.66;860.76;0.00;0.00;0.62;;;;;12.40;1.00;;;;;;2264451;61;969;-84
2021/12/13 06:33:23;379693.00;1.27;654.90;36285.00;0.12;63.46;;;;;12.50;1.00;;;;;;2261247;61;1002;-84
2021/12/13 06:35:52;160906.00;0.54;278.60;0.00;0.00;0.62;;;;;12.40;1.00;;;;;;2257779;61;1006;-81
2021/12/13 06:38:31;502915.00;1.68;866.84;56196.00;0.19;97.90;;;;;12.50;1.00;;;;;;2257887;61;1468;-83
2021/12/13 06:41:01;210839.00;0.70;364.58;0.00;0.00;0.62;;;;;12.50;1.00;;;;;;2261208;61;977;-83
2021/12/13 06:43:33;249712.00;0.83;431.46;0.00;0.00;0.62;;;;;12.30;1.00;;;;;;2258075;61;946;-83
2021/12/13 06:46:03;403313.00;1.34;695.50;0.00;0.00;0.62;;;;;12.00;1.00;;;;;;2257871;61;922;-82
2021/12/13 06:48:38;404081.00;1.35;696.82;0.00;0.00;0.62;;;;;11.90;1.00;;;;;;2260857;61;1992;-83
2021/12/13 06:51:07;261652.00;0.87;451.99;0.00;0.00;0.62;;;;;11.70;1.00;;;;;;2264470;61;990;-83
2021/12/13 06:56:24;74026.00;0.25;128.72;0.00;0.00;0.62;;;;;11.30;1.00;;;;;;2282930;60;1375;-83
2021/12/13 06:58:58;316632.00;1.06;546.51;0.00;0.00;0.62;;;;;11.40;1.00;;;;;;2277534;60;1412;-84
2021/12/13 07:01:25;140781.00;0.47;243.92;0.00;0.00;0.62;;;;;11.30;1.00;;;;;;2306548;40;3841;31
2021/12/13 07:03:55;54632.00;0.18;95.20;0.00;0.00;0.62;;;;;11.40;1.00;;;;;;2274981;60;1378;-85
2021/12/13 07:06:25;190663.00;0.64;329.85;0.00;0.00;0.62;;;;;11.70;1.00;;;;;;2273158;60;1013;-84
2021/12/13 07:09:13;179893.00;0.60;311.31;0.00;0.00;0.62;;;;;11.50;1.00;;;;;;2273311;61;1914;-84
2021/12/13 07:11:47;97586.00;0.33;169.40;0.00;0.00;0.62;;;;;12.00;1.00;;;;;;2416284;39;3853;31
2021/12/13 07:14:20;182267.00;0.61;315.39;0.00;0.00;0.62;;;;;12.10;1.00;;;;;;2271534;61;1361;-85
2021/12/13 07:16:52;94030.00;0.31;163.27;0.00;0.00;0.62;;;;;12.30;1.00;;;;;;2268685;61;1331;-84
2021/12/13 07:19:22;89128.00;0.30;154.80;0.00;0.00;0.62;;;;;12.50;1.00;;;;;;2268631;61;1013;-84
2021/12/13 07:24:19;358653.00;1.20;618.73;6284.00;0.02;11.51;;;;;12.80;1.00;;;;;;2274763;61;1371;-82
2021/12/13 07:26:53;504074.00;1.68;868.84;13380.00;0.04;23.80;;;;;13.00;1.00;;;;;;2273017;61;1466;-84
2021/12/13 07:29:24;857966.00;2.86;1482.41;0.00;0.00;0.62;;;;;12.40;1.00;;;;;;2264427;61;1997;-84
2021/12/13 07:32:05;842157.00;2.81;1454.75;25688.00;0.09;45.12;;;;;11.90;1.00;;;;;;2264400;61;931;-83
2021/12/13 07:34:46;723885.00;2.41;1248.68;10226.00;0.03;18.34;;;;;11.40;1.00;;;;;;2264607;61;1006;-83
2021/12/13 07:39:43;286789.00;0.96;495.21;0.00;0.00;0.62;;;;;11.20;1.00;;;;;;2274730;61;1355;-85
2021/12/13 07:44:42;448440.00;1.49;773.10;85295.00;0.28;148.18;;;;;11.50;1.00;;;;;;2278746;60;1235;-84
2021/12/13 07:52:06;184540.00;0.62;319.31;19881.00;0.07;35.06;;;;;11.90;1.00;;;;;;2274626;61;1414;-84
2021/12/13 07:57:16;471862.00;1.57;813.39;0.00;0.00;0.62;;;;;12.30;1.00;;;;;;2546642;39;1913;31
2021/12/13 07:59:45;244485.00;0.81;422.47;38460.00;0.13;67.22;;;;;12.50;1.00;;;;;;2264197;61;1384;-82
2021/12/13 08:19:58;765330.00;2.55;1320.72;1968.00;0.01;4.03;;;;;13.40;1.00;;;;;;2278407;61;1137;-83
2021/12/13 08:22:28;109332.00;0.36;189.68;0.00;0.00;0.62;;;;;13.50;1.00;;;;;;2269858;61;1002;-83
2021/12/13 08:25:00;101299.00;0.34;175.81;0.00;0.00;0.62;;;;;13.30;1.00;;;;;;2269886;61;970;-82
2021/12/13 08:32:25;301062.00;1.00;519.75;0.00;0.00;0.62;;;;;13.30;1.00;;;;;;2278247;61;1406;-85
2021/12/13 08:39:54;655551.00;2.19;1130.24;79645.00;0.27;138.42;;;;;13.10;1.00;;;;;;2279169;61;935;-86
2021/12/13 08:44:57;1146975.00;3.82;1994.64;105930.00;0.35;183.81;;;;;13.00;1.00;;;;;;2279010;61;1320;-85
2021/12/13 08:50:00;1606565.00;5.36;2845.29;150710.00;0.50;261.03;;;;;12.90;1.00;;;;;;2278230;61;1962;-82
2021/12/13 08:52:30;1320343.00;4.40;2309.38;191501.00;0.64;331.29;;;;;12.60;1.00;;;;;;2415382;40;3854;31
2021/12/13 08:57:36;1836417.00;6.12;3293.67;393468.00;1.31;678.58;;;;;12.40;1.00;;;;;;2279156;61;1356;-85
2021/12/13 09:05:10;482161.00;1.61;831.12;89435.00;0.30;155.33;;;;;12.90;1.00;;;;;;2278910;61;952;-84
2021/12/13 09:07:46;378341.00;1.26;652.57;99746.00;0.33;173.13;;;;;12.90;1.00;;;;;;2269354;61;1329;-82
2021/12/13 09:10:13;309887.00;1.03;534.92;80391.00;0.27;139.71;;;;;13.00;1.00;;;;;;2272657;61;1999;-84
2021/12/13 09:12:45;76248.00;0.25;132.56;0.00;0.00;0.62;;;;;13.10;1.00;;;;;;2272745;61;1015;-84
2021/12/13 09:17:41;245969.00;0.82;425.02;0.00;0.00;0.62;;;;;13.20;1.00;;;;;;2278157;61;1406;-84
2021/12/13 09:22:43;213685.00;0.71;369.48;0.00;0.00;0.62;;;;;13.40;1.00;;;;;;2277773;61;1362;-84
2021/12/13 09:25:16;137555.00;0.46;238.36;0.00;0.00;0.62;;;;;13.30;1.00;;;;;;2269381;61;1004;-83
2021/12/13 09:27:53;162874.00;0.54;281.99;0.00;0.00;0.62;;;;;13.30;1.00;;;;;;2269564;61;1338;-85
2021/12/13 09:32:53;139554.00;0.47;241.80;0.00;0.00;0.62;;;;;13.40;1.00;;;;;;2277687;61;1402;-85
2021/12/13 09:35:39;551384.00;1.84;950.35;54625.00;0.18;95.18;;;;;13.50;1.00;;;;;;2276356;61;1038;-84
2021/12/13 09:38:41;1464708.00;4.88;2576.89;210979.00;0.70;364.82;;;;;13.50;1.00;;;;;;2276311;61;1425;-84
2021/12/13 09:41:23;315572.00;1.05;544.69;0.00;0.00;0.62;;;;;13.50;1.00;;;;;;2253604;61;981;-83
2021/12/13 09:43:59;190552.00;0.64;329.66;0.00;0.00;0.62;;;;;13.60;1.00;;;;;;2260079;61;1103;-81
2021/12/13 09:46:33;451715.00;1.51;778.73;0.00;0.00;0.62;;;;;13.60;1.00;;;;;;2250266;61;1005;-83
2021/12/13 09:49:05;79148.00;0.26;137.57;0.00;0.00;0.62;;;;;13.70;1.00;;;;;;2253696;61;1013;-81
2021/12/13 09:54:05;345791.00;1.15;596.63;0.00;0.00;0.62;;;;;13.50;1.00;;;;;;2278276;61;1286;-82
2021/12/13 09:56:38;208102.00;0.69;359.87;0.00;0.00;0.62;;;;;13.30;1.00;;;;;;2276719;61;1388;-83
2021/12/13 09:59:17;166422.00;0.55;288.10;0.00;0.00;0.62;;;;;13.30;1.00;;;;;;2272690;61;940;-83
2021/12/13 10:06:44;161993.00;0.54;280.47;0.00;0.00;0.62;;;;;13.50;1.00;;;;;;2278839;61;1415;-83
2021/12/13 10:11:44;139333.00;0.46;241.42;0.00;0.00;0.62;;;;;13.40;1.00;;;;;;2278433;61;1386;-81
2021/12/13 10:14:18;190801.00;0.64;330.09;0.00;0.00;0.62;;;;;13.20;1.00;;;;;;2269873;61;986;-83
2021/12/13 10:19:17;142587.00;0.48;247.03;0.00;0.00;0.62;;;;;13.50;1.00;;;;;;2278667;61;1389;-83
2021/12/13 10:21:47;148935.00;0.50;257.97;0.00;0.00;0.62;;;;;13.90;1.00;;;;;;2277047;61;969;-83
2021/12/13 10:24:21;225267.00;0.75;389.41;31847.00;0.11;55.78;;;;;13.90;1.00;;;;;;2268776;61;993;-83
2021/12/13 10:26:52;210623.00;0.70;364.21;0.00;0.00;0.62;;;;;13.70;1.00;;;;;;2262041;61;1455;-83
2021/12/13 10:29:23;201355.00;0.67;348.26;0.00;0.00;0.62;;;;;13.50;1.00;;;;;;2262232;61;1911;-84
2021/12/13 10:31:56;131996.00;0.44;228.77;0.00;0.00;0.62;;;;;13.80;1.00;;;;;;2262347;61;993;-83
2021/12/13 10:34:28;630176.00;2.10;1086.35;39788.00;0.13;69.52;;;;;13.90;1.00;;;;;;2261175;61;1021;-85
2021/12/13 10:36:59;1005763.00;3.35;1742.68;96138.00;0.32;166.91;;;;;14.00;1.00;;;;;;2254492;61;1392;-85
2021/12/13 10:39:31;1614688.00;5.38;2860.84;159641.00;0.53;276.42;;;;;13.90;1.00;;;;;;2254512;61;1004;-83
2021/12/13 10:42:01;1321792.00;4.41;2312.04;114739.00;0.38;199.01;;;;;13.90;1.00;;;;;;2265388;61;1036;-82
2021/12/13 10:44:31;1225808.00;4.09;2136.95;88523.00;0.30;153.76;;;;;14.00;1.00;;;;;;2269519;61;934;-83
2021/12/13 10:47:05;1341801.00;4.47;2348.81;155441.00;0.52;269.18;;;;;13.90;1.00;;;;;;2272518;61;1286;-83
2021/12/13 10:49:36;1639444.00;5.46;2908.36;166638.00;0.56;288.48;;;;;13.70;1.00;;;;;;2272706;61;1915;-83
2021/12/13 10:52:09;901301.00;3.00;1558.41;56182.00;0.19;97.88;;;;;14.00;1.00;;;;;;2271352;61;1010;-82
2021/12/13 10:54:40;331409.00;1.10;571.91;116244.00;0.39;201.60;;;;;14.50;1.00;;;;;;2272521;61;969;-84
2021/12/13 10:57:10;258078.00;0.86;445.84;0.00;0.00;0.62;;;;;14.10;1.00;;;;;;2269068;61;1310;-82
2021/12/13 10:59:40;283657.00;0.95;489.82;29537.00;0.10;51.78;;;;;14.10;1.00;;;;;;2269108;61;906;-81
2021/12/13 11:02:10;97028.00;0.32;168.44;0.00;0.00;0.62;;;;;14.20;1.00;;;;;;2272625;61;1158;-83
2021/12/13 11:04:43;105137.00;0.35;182.44;0.00;0.00;0.62;;;;;14.30;1.00;;;;;;2268530;61;941;-84
2021/12/13 11:07:14;162332.00;0.54;281.06;0.00;0.00;0.62;;;;;14.40;1.00;;;;;;2268441;61;1408;-83
2021/12/13 11:09:44;130189.00;0.43;225.66;0.00;0.00;0.62;;;;;14.40;1.00;;;;;;2261850;61;1905;-83
2021/12/13 11:12:17;187443.00;0.62;324.31;0.00;0.00;0.62;;;;;14.30;1.00;;;;;;2269692;60;1024;-83
2021/12/13 11:14:50;137545.00;0.46;238.34;0.00;0.00;0.62;;;;;14.40;1.00;;;;;;2265978;60;989;-82
2021/12/13 11:17:23;49497.00;0.16;86.32;0.00;0.00;0.62;;;;;14.10;1.00;;;;;;2262628;61;1361;-82
2021/12/13 11:19:56;146292.00;0.49;253.42;0.00;0.00;0.62;;;;;14.10;1.00;;;;;;2272640;60;1012;-82
2021/12/13 11:22:29;194988.00;0.65;337.30;0.00;0.00;0.62;;;;;14.20;1.00;;;;;;2274293;60;993;-83
2021/12/13 11:25:02;279085.00;0.93;481.96;26232.00;0.09;46.06;;;;;14.20;1.00;;;;;;2273305;61;932;-83
2021/12/13 11:27:33;128063.00;0.43;221.99;0.00;0.00;0.62;;;;;14.20;1.00;;;;;;2272442;61;1514;-83
2021/12/13 11:30:07;259900.00;0.87;448.98;0.00;0.00;0.62;;;;;14.30;1.00;;;;;;2269072;61;1996;-81
2021/12/13 11:33:23;210794.00;0.70;364.50;0.00;0.00;0.62;;;;;14.40;1.00;;;;;;2269061;61;1029;-82
2021/12/13 11:36:27;540843.00;1.80;932.18;27758.00;0.09;48.70;;;;;14.50;1.00;;;;;;2272415;61;1069;-83
2021/12/13 11:41:51;506900.00;1.69;873.70;96719.00;0.32;167.91;;;;;14.50;1.00;;;;;;2278859;61;1304;-81
2021/12/13 11:44:50;523423.00;1.74;902.16;100276.00;0.33;174.05;;;;;14.60;1.00;;;;;;2270453;61;912;-85
2021/12/13 11:47:44;349052.00;1.16;602.23;85129.00;0.28;147.90;;;;;15.00;1.00;;;;;;2270379;61;1310;-85
2021/12/13 11:50:41;381187.00;1.27;657.47;93390.00;0.31;162.16;;;;;14.80;1.00;;;;;;2269068;61;1994;-83
2021/12/13 11:53:28;479548.00;1.60;826.62;147929.00;0.49;256.24;;;;;14.70;1.00;;;;;;2256283;61;1083;-83
2021/12/13 11:56:26;130322.00;0.43;225.88;0.00;0.00;0.62;;;;;14.20;1.00;;;;;;2268829;61;1155;-82
2021/12/13 11:59:11;169866.00;0.57;294.04;0.00;0.00;0.62;;;;;14.10;1.00;;;;;;2268775;61;1406;-82
2021/12/13 12:02:03;151435.00;0.50;262.28;0.00;0.00;0.62;;;;;13.90;1.00;;;;;;2268412;61;1056;-82
2021/12/13 12:05:15;43323.00;0.14;75.64;0.00;0.00;0.62;;;;;14.20;1.00;;;;;;2268453;61;1012;-82
2021/12/13 12:08:19;104575.00;0.35;181.47;0.00;0.00;0.62;;;;;14.30;1.00;;;;;;2261731;61;1466;-83
2021/12/13 12:11:30;60428.00;0.20;105.22;0.00;0.00;0.62;;;;;14.50;1.00;;;;;;2247903;61;2013;-82
2021/12/13 12:14:05;67917.00;0.23;118.16;0.00;0.00;0.62;;;;;14.70;1.00;;;;;;2257211;61;993;-81
2021/12/13 12:16:38;16121.00;0.05;28.55;0.00;0.00;0.62;;;;;14.70;1.00;;;;;;2253710;61;1325;-82
2021/12/13 12:19:10;78156.00;0.26;135.85;0.00;0.00;0.62;;;;;15.00;1.00;;;;;;2254536;61;1010;-85
2021/12/13 12:21:47;57643.00;0.19;100.40;0.00;0.00;0.62;;;;;14.40;1.00;;;;;;2257583;61;1011;-80
2021/12/13 12:24:18;55343.00;0.18;96.43;0.00;0.00;0.62;;;;;14.30;1.00;;;;;;2255971;61;1053;-81
2021/12/13 12:26:52;32040.00;0.11;56.11;0.00;0.00;0.62;;;;;14.30;1.00;;;;;;2252733;61;1456;-82
2021/12/13 12:29:23;165785.00;0.55;287.01;0.00;0.00;0.62;;;;;14.60;1.00;;;;;;2252976;61;959;-83
2021/12/13 12:31:59;85865.00;0.29;149.17;0.00;0.00;0.62;;;;;14.50;1.00;;;;;;2255989;61;1920;-81
2021/12/13 12:34:26;128998.00;0.43;223.60;0.00;0.00;0.62;;;;;14.20;1.00;;;;;;2252289;61;1030;-83
2021/12/13 12:37:30;91039.00;0.30;158.10;0.00;0.00;0.62;;;;;13.80;1.00;;;;;;2243914;61;1303;-82
2021/12/13 12:40:23;354142.00;1.18;610.98;90656.00;0.30;157.44;;;;;13.80;1.00;;;;;;2220973;62;1059;-81
2021/12/13 12:42:55;447329.00;1.49;771.19;85599.00;0.29;148.71;;;;;13.70;1.00;;;;;;2235466;62;1168;-83
2021/12/13 12:45:30;89981.00;0.30;156.27;0.00;0.00;0.62;;;;;13.20;1.00;;;;;;2230014;62;1002;-85
2021/12/13 12:48:07;41914.00;0.14;73.20;0.00;0.00;0.62;;;;;13.20;1.00;;;;;;2245719;61;1413;-85
2021/12/13 12:50:38;279215.00;0.93;482.19;100702.00;0.34;174.78;;;;;13.20;1.00;;;;;;2244250;61;1920;-84
2021/12/13 12:55:38;278917.00;0.93;481.68;93630.00;0.31;162.58;;;;;13.40;1.00;;;;;;2279342;61;1919;-82
2021/12/13 12:58:12;286987.00;0.96;495.55;94149.00;0.31;163.47;;;;;13.80;1.00;;;;;;2270198;61;1404;-83
2021/12/13 13:00:42;270788.00;0.90;467.70;105569.00;0.35;183.18;;;;;13.90;1.00;;;;;;2272919;61;1061;-84
2021/12/13 13:03:16;405750.00;1.35;699.69;116686.00;0.39;202.37;;;;;13.30;1.00;;;;;;2269322;61;1055;-84
2021/12/13 13:05:43;213594.00;0.71;369.32;82805.00;0.28;143.88;;;;;13.20;1.00;;;;;;2269547;61;1017;-82
2021/12/13 13:08:10;74549.00;0.25;129.62;0.00;0.00;0.62;;;;;13.40;1.00;;;;;;2272778;61;1463;-84
2021/12/13 13:10:49;46307.00;0.15;80.80;0.00;0.00;0.62;;;;;13.60;1.00;;;;;;2272901;61;1997;-84
2021/12/13 13:13:18;52237.00;0.17;91.05;0.00;0.00;0.62;;;;;13.40;1.00;;;;;;2276538;61;981;-84
2021/12/13 13:15:49;100069.00;0.33;173.69;0.00;0.00;0.62;;;;;13.40;1.00;;;;;;2272907;61;962;-82
2021/12/13 13:18:23;92530.00;0.31;160.68;0.00;0.00;0.62;;;;;13.30;1.00;;;;;;2276345;61;1336;-84
2021/12/13 13:28:20;72150.00;0.24;125.48;0.00;0.00;0.62;;;;;12.20;1.00;;;;;;2278317;61;1427;-84
2021/12/13 13:30:55;184439.00;0.61;319.13;0.00;0.00;0.62;;;;;12.00;1.00;;;;;;2273071;61;1919;-83
2021/12/13 13:35:52;92206.00;0.31;160.12;0.00;0.00;0.62;;;;;12.50;1.00;;;;;;2278425;61;1398;-84
2021/12/13 13:40:47;121433.00;0.40;210.55;0.00;0.00;0.62;;;;;13.10;1.00;;;;;;2274687;61;1406;-84
2021/12/13 13:43:18;181673.00;0.61;314.37;0.00;0.00;0.62;;;;;13.00;1.00;;;;;;2266289;61;987;-84
2021/12/13 13:48:16;93336.00;0.31;162.07;0.00;0.00;0.62;;;;;13.70;1.00;;;;;;2275324;61;1402;-83
2021/12/13 13:50:47;67225.00;0.22;116.96;0.00;0.00;0.62;;;;;13.90;1.00;;;;;;2266119;61;1919;-83
2021/12/13 13:53:17;152101.00;0.51;263.43;0.00;0.00;0.62;;;;;13.90;1.00;;;;;;2266081;61;934;-83
2021/12/13 13:55:49;98367.00;0.33;170.75;0.00;0.00;0.62;;;;;14.00;1.00;;;;;;2269685;61;1009;-83
2021/12/13 13:58:23;42391.00;0.14;74.02;0.00;0.00;0.62;;;;;14.10;1.00;;;;;;2273337;61;1440;-84
2021/12/13 14:00:57;47384.00;0.16;82.66;0.00;0.00;0.62;;;;;14.10;1.00;;;;;;2273306;61;1045;-83
2021/12/13 14:03:33;39805.00;0.13;69.55;0.00;0.00;0.62;;;;;14.00;1.00;;;;;;2262897;61;958;-83
2021/12/13 14:06:00;101150.00;0.34;175.56;0.00;0.00;0.62;;;;;13.80;1.00;;;;;;2273134;61;932;-82
2021/12/13 14:08:29;104957.00;0.35;182.13;0.00;0.00;0.62;;;;;13.40;1.00;;;;;;2269494;61;1346;-83
2021/12/13 14:10:59;90996.00;0.30;158.03;0.00;0.00;0.62;;;;;13.10;1.00;;;;;;2272778;61;1986;-85
2021/12/13 14:13:33;139926.00;0.47;242.44;0.00;0.00;0.62;;;;;12.80;1.00;;;;;;2268709;61;941;-84
2021/12/13 14:16:08;104630.00;0.35;181.56;0.00;0.00;0.62;;;;;12.40;1.00;;;;;;2265361;61;964;-83
2021/12/13 14:18:35;138628.00;0.46;240.21;0.00;0.00;0.62;;;;;11.90;1.00;;;;;;2261979;61;1352;-85
2021/12/13 14:21:10;126108.00;0.42;218.62;0.00;0.00;0.62;;;;;11.40;1.00;;;;;;2268718;61;1164;-84
2021/12/13 14:23:38;90894.00;0.30;157.85;0.00;0.00;0.62;;;;;11.50;1.00;;;;;;2268771;61;965;-85
2021/12/13 14:26:11;100742.00;0.34;174.85;0.00;0.00;0.62;;;;;11.30;1.00;;;;;;2268656;61;1013;-85
2021/12/13 14:28:43;307116.00;1.02;530.15;54412.00;0.18;94.82;;;;;11.30;1.00;;;;;;2258772;61;1418;-85
2021/12/13 14:31:13;147432.00;0.49;255.38;0.00;0.00;0.62;;;;;11.40;1.00;;;;;;2270262;61;1994;-85
2021/12/13 14:33:43;116804.00;0.39;202.57;0.00;0.00;0.62;;;;;11.30;1.00;;;;;;2264522;61;997;-85
2021/12/13 14:36:15;32266.00;0.11;56.51;0.00;0.00;0.62;;;;;11.10;2.40;;;;;;2261364;61;948;-86
2021/12/13 14:38:48;104858.00;0.35;181.96;0.00;0.00;0.62;;;;;11.60;1.00;;;;;;2260553;61;1424;-84
2021/12/13 14:41:19;110514.00;0.37;191.72;0.00;0.00;0.62;;;;;12.10;1.00;;;;;;2260419;61;952;-86
2021/12/13 14:43:55;42465.00;0.14;74.15;0.00;0.00;0.62;;;;;12.70;1.00;;;;;;2260604;61;997;-84
2021/12/13 14:46:26;33853.00;0.11;59.25;0.00;0.00;0.62;;;;;12.60;1.00;;;;;;2260555;61;1037;-85
2021/12/13 14:51:27;102344.00;0.34;177.62;0.00;0.00;0.62;;;;;12.60;1.00;;;;;;2278961;61;1958;-84
2021/12/13 14:56:23;158316.00;0.53;274.14;0.00;0.00;0.62;;;;;12.20;1.00;;;;;;2282603;60;1509;-84
2021/12/13 14:58:55;150413.00;0.50;260.52;0.00;0.00;0.62;;;;;12.50;1.00;;;;;;2280473;60;1356;-85
2021/12/13 15:01:26;211886.00;0.71;366.38;0.00;0.00;0.62;;;;;12.90;1.00;;;;;;2280721;61;1006;-85
2021/12/13 15:03:58;128832.00;0.43;223.32;0.00;0.00;0.62;;;;;13.20;1.00;;;;;;2274166;60;996;-84
2021/12/13 15:08:58;130037.00;0.43;225.39;0.00;0.00;0.62;;;;;13.30;1.00;;;;;;2278601;61;1390;-84
2021/12/13 15:11:29;82121.00;0.27;142.70;0.00;0.00;0.62;;;;;13.10;1.00;;;;;;2276868;61;1988;-85
2021/12/13 15:14:00;84861.00;0.28;147.43;0.00;0.00;0.62;;;;;12.80;1.00;;;;;;2273184;61;911;-84
2021/12/13 15:26:30;94154.00;0.31;163.48;0.00;0.00;0.62;;;;;13.10;1.00;;;;;;2278295;61;1389;-84
2021/12/13 15:29:01;156961.00;0.52;271.80;0.00;0.00;0.62;;;;;13.00;1.00;;;;;;2265935;61;940;-82
2021/12/13 15:31:34;140755.00;0.47;243.87;0.00;0.00;0.62;;;;;13.00;1.00;;;;;;2272597;61;1919;-84
2021/12/13 15:34:03;130079.00;0.43;225.47;0.00;0.00;0.62;;;;;13.00;1.00;;;;;;2265866;61;963;-84
2021/12/13 15:36:33;109046.00;0.36;189.18;0.00;0.00;0.62;;;;;13.10;1.00;;;;;;2272358;61;953;-86
2021/12/13 15:39:03;112871.00;0.38;195.78;0.00;0.00;0.62;;;;;13.00;1.00;;;;;;2264492;61;945;-85
2021/12/13 15:41:30;185753.00;0.62;321.40;27735.00;0.09;48.66;;;;;13.00;1.00;;;;;;2416381;40;4146;31
2021/12/13 15:46:28;240932.00;0.80;416.35;8724.00;0.03;15.74;;;;;13.10;1.00;;;;;;2278766;61;1161;-82
2021/12/13 15:51:46;110639.00;0.37;191.93;0.00;0.00;0.62;;;;;13.20;1.00;;;;;;2276696;61;1986;-83
2021/12/13 15:56:44;147150.00;0.49;254.90;0.00;0.00;0.62;;;;;13.20;1.00;;;;;;2278000;61;1386;-83
2021/12/13 15:59:15;143548.00;0.48;248.69;0.00;0.00;0.62;;;;;13.30;1.00;;;;;;2269412;61;993;-84
2021/12/13 16:01:46;89748.00;0.30;155.87;0.00;0.00;0.62;;;;;13.30;1.00;;;;;;2272696;61;935;-83
2021/12/13 16:04:17;51854.00;0.17;90.39;0.00;0.00;0.62;;;;;13.30;1.00;;;;;;2265952;61;945;-83
2021/12/13 16:06:47;198306.00;0.66;343.01;0.00;0.00;0.62;;;;;13.40;1.00;;;;;;2265996;60;1445;-85
2021/12/13 16:09:17;242539.00;0.81;419.12;0.00;0.00;0.62;;;;;13.50;1.00;;;;;;2269214;60;1001;-84
2021/12/13 16:17:00;357152.00;1.19;616.15;40078.00;0.13;70.02;;;;;13.10;1.00;;;;;;2281902;60;1391;-84
2021/12/13 16:19:44;250401.00;0.83;432.64;33479.00;0.11;58.60;;;;;13.10;1.00;;;;;;2272944;61;1008;-81
2021/12/13 16:22:29;161195.00;0.54;279.10;0.00;0.00;0.62;;;;;13.00;1.00;;;;;;2272979;61;990;-84
2021/12/13 16:24:57;307925.00;1.03;531.54;0.00;0.00;0.62;;;;;12.50;1.00;;;;;;2272207;61;955;-85
2021/12/13 16:29:52;525940.00;1.75;906.50;96823.00;0.32;168.09;;;;;12.00;1.00;;;;;;2278313;61;1382;-84
2021/12/13 16:32:21;368459.00;1.23;635.59;89868.00;0.30;156.08;;;;;12.50;1.00;;;;;;2276479;61;1980;-84
2021/12/13 16:34:48;456115.00;1.52;786.30;90458.00;0.30;157.10;;;;;12.70;1.00;;;;;;2269808;61;937;-84
2021/12/13 16:42:14;72847.00;0.24;126.68;0.00;0.00;0.62;;;;;12.70;1.00;;;;;;2278375;61;1224;-84
2021/12/13 16:44:45;94417.00;0.31;163.93;0.00;0.00;0.62;;;;;12.60;1.00;;;;;;2268388;61;1025;-83
2021/12/13 16:49:43;16082.00;0.05;28.48;0.00;0.00;0.62;;;;;12.20;1.00;;;;;;2503999;40;3447;31
2021/12/13 16:52:14;108140.00;0.36;187.62;0.00;0.00;0.62;;;;;12.20;1.00;;;;;;2274539;61;1982;-83
2021/12/13 16:54:45;150239.00;0.50;260.22;0.00;0.00;0.62;;;;;12.10;1.00;;;;;;2272443;61;1029;-84
2021/12/13 17:04:40;110221.00;0.37;191.21;0.00;0.00;0.62;;;;;12.30;1.00;;;;;;2273854;61;1165;-85
2021/12/13 17:07:14;129496.00;0.43;224.46;0.00;0.00;0.62;;;;;12.20;1.00;;;;;;2265559;61;1468;-85
2021/12/13 17:14:49;128542.00;0.43;222.82;0.00;0.00;0.62;;;;;11.80;1.00;;;;;;2277902;61;1410;-85
2021/12/13 17:19:46;193233.00;0.64;334.27;0.00;0.00;0.62;;;;;11.00;1.00;;;;;;2279013;61;1314;-83
2021/12/13 17:22:17;106932.00;0.36;185.54;0.00;0.00;0.62;;;;;10.80;1.00;;;;;;2276236;61;992;-84
2021/12/13 17:27:14;167581.00;0.56;290.10;0.00;0.00;0.62;;;;;11.40;1.00;;;;;;2277861;61;1406;-85
2021/12/13 17:34:50;68618.00;0.23;119.37;0.00;0.00;0.62;;;;;11.80;1.00;;;;;;2277831;61;1434;-85
2021/12/13 17:44:42;156145.00;0.52;270.40;0.00;0.00;0.62;;;;;12.00;1.00;;;;;;2278002;61;1314;-85
2021/12/13 17:49:48;81653.00;0.27;141.89;0.00;0.00;0.62;;;;;11.70;1.00;;;;;;2278127;61;1366;-85
2021/12/13 17:52:17;131143.00;0.44;227.30;0.00;0.00;0.62;;;;;11.70;1.00;;;;;;2276158;61;1994;-83